createdAt,value
2019-01-30T00:00:45.528Z,655.93
2019-01-30T00:03:14.231Z,725.27
2019-01-30T00:05:42.948Z,341.13
2019-01-30T00:08:11.676Z,1767.08
2019-01-30T00:10:40.312Z,979.33
2019-01-30T00:13:09.027Z,794.60
2019-01-30T00:15:37.777Z,577.55
2019-01-30T00:18:06.431Z,1082.77
2019-01-30T00:20:35.142Z,507.65
2019-01-30T00:23:03.999Z,318.55
2019-01-30T00:25:32.707Z,548.50
2019-01-30T00:28:01.415Z,711.85
2019-01-30T00:30:30.197Z,595.10
2019-01-30T00:32:58.903Z,350.22
2019-01-30T00:35:27.819Z,329.73
2019-01-30T00:37:58.479Z,379.67
2019-01-30T00:40:27.047Z,469.20
2019-01-30T00:42:55.683Z,351.80
2019-01-30T00:45:24.695Z,1310.35
2019-01-30T00:47:53.434Z,484.37
2019-01-30T00:50:24.322Z,481.07
2019-01-30T00:52:53.223Z,464.73
2019-01-30T00:55:22.359Z,360.35
2019-01-30T00:57:51.002Z,380.25
2019-01-30T01:00:24.871Z,293.00
2019-01-30T01:02:53.540Z,322.20
2019-01-30T01:05:22.539Z,244.97
2019-01-30T01:07:51.244Z,278.20
2019-01-30T01:10:21.410Z,217.05
2019-01-30T01:12:50.345Z,293.77
2019-01-30T01:15:19.268Z,643.73
2019-01-30T01:17:48.075Z,213.92
2019-01-30T01:20:24.146Z,213.50
2019-01-30T01:22:52.822Z,217.95
2019-01-30T01:25:21.562Z,199.25
2019-01-30T01:27:50.272Z,215.22
2019-01-30T01:30:25.548Z,203.95
2019-01-30T01:32:54.397Z,208.13
2019-01-30T01:35:23.241Z,217.10
2019-01-30T01:37:51.988Z,195.45
2019-01-30T01:40:20.685Z,181.87
2019-01-30T01:42:49.336Z,198.60
2019-01-30T01:45:23.824Z,200.55
2019-01-30T01:47:52.523Z,229.82
2019-01-30T01:50:22.492Z,197.28
2019-01-30T01:52:51.250Z,216.30
2019-01-30T01:55:20.168Z,215.90
2019-01-30T01:57:48.999Z,190.23
2019-01-30T02:00:22.375Z,184.87
2019-01-30T02:02:51.585Z,192.75
2019-01-30T02:05:22.017Z,178.27
2019-01-30T02:07:51.090Z,180.27
2019-01-30T02:10:22.318Z,174.05
2019-01-30T02:12:51.030Z,163.43
2019-01-30T02:15:21.622Z,168.17
2019-01-30T02:17:50.832Z,168.13
2019-01-30T02:20:21.867Z,165.50
2019-01-30T02:22:52.374Z,177.72
2019-01-30T02:25:21.049Z,168.62
2019-01-30T02:27:49.723Z,162.43
2019-01-30T02:30:20.743Z,172.80
2019-01-30T02:32:49.461Z,177.72
2019-01-30T02:35:18.115Z,167.53
2019-01-30T02:37:46.823Z,195.95
2019-01-30T02:40:17.994Z,188.55
2019-01-30T02:42:46.809Z,166.18
2019-01-30T02:45:20.791Z,156.20
2019-01-30T02:47:49.463Z,174.03
2019-01-30T02:50:19.669Z,167.80
2019-01-30T02:52:48.544Z,166.67
2019-01-30T02:55:19.087Z,188.73
2019-01-30T02:57:47.799Z,168.68
2019-01-30T03:00:21.885Z,170.50
2019-01-30T03:02:50.498Z,176.50
2019-01-30T03:05:19.410Z,196.78
2019-01-30T03:07:48.175Z,165.90
2019-01-30T03:10:18.790Z,167.03
2019-01-30T03:12:47.678Z,175.33
2019-01-30T03:15:26.538Z,163.97
2019-01-30T03:17:55.184Z,181.07
2019-01-30T03:20:28.694Z,170.27
2019-01-30T03:22:57.379Z,175.33
2019-01-30T03:25:26.687Z,172.90
2019-01-30T03:27:55.615Z,163.17
2019-01-30T03:30:26.996Z,162.13
2019-01-30T03:32:55.818Z,134.90
2019-01-30T03:35:24.909Z,110.00
2019-01-30T03:37:53.545Z,98.07
2019-01-30T03:40:23.368Z,90.90
2019-01-30T03:42:52.032Z,80.10
2019-01-30T03:45:22.639Z,72.40
2019-01-30T03:47:51.264Z,73.05
2019-01-30T03:50:20.317Z,62.93
2019-01-30T03:52:49.032Z,65.60
2019-01-30T03:55:19.364Z,64.00
2019-01-30T03:57:48.139Z,57.40
2019-01-30T04:00:21.651Z,51.40
2019-01-30T04:02:50.782Z,54.60
2019-01-30T04:05:19.685Z,57.30
2019-01-30T04:07:48.323Z,66.97
2019-01-30T04:10:24.627Z,48.10
2019-01-30T04:12:53.337Z,40.60
2019-01-30T04:15:22.318Z,42.90
2019-01-30T04:17:51.007Z,34.50
2019-01-30T04:20:22.949Z,43.68
2019-01-30T04:22:51.620Z,43.03
2019-01-30T04:25:20.359Z,47.95
2019-01-30T04:27:49.067Z,48.13
2019-01-30T04:30:20.368Z,54.15
2019-01-30T04:32:49.093Z,52.50
2019-01-30T04:35:17.791Z,55.38
2019-01-30T04:37:46.418Z,50.43
2019-01-30T04:40:17.337Z,50.53
2019-01-30T04:42:45.977Z,54.08
2019-01-30T04:45:17.420Z,48.95
2019-01-30T04:47:46.081Z,49.95
2019-01-30T04:50:14.817Z,52.27
2019-01-30T04:52:43.449Z,52.30
2019-01-30T04:55:12.578Z,54.17
2019-01-30T04:57:41.327Z,52.33
2019-01-30T05:00:12.942Z,61.88
2019-01-30T05:02:41.898Z,66.30
2019-01-30T05:05:11.951Z,61.18
2019-01-30T05:07:40.569Z,59.45
2019-01-30T05:10:11.614Z,56.65
2019-01-30T05:12:40.292Z,61.85
2019-01-30T05:15:20.251Z,61.65
2019-01-30T05:17:49.191Z,55.50
2019-01-30T05:20:39.040Z,51.70
2019-01-30T05:23:35.139Z,63.08
2019-01-30T05:26:03.883Z,59.18
2019-01-30T05:28:32.666Z,57.30
2019-01-30T05:31:01.365Z,66.60
2019-01-30T05:33:30.343Z,64.17
2019-01-30T05:35:59.072Z,63.37
2019-01-30T05:38:27.761Z,71.43
2019-01-30T05:40:56.483Z,65.67
2019-01-30T05:43:25.117Z,64.92
2019-01-30T05:45:53.740Z,66.33
2019-01-30T05:48:22.735Z,62.08
2019-01-30T05:50:51.393Z,65.97
2019-01-30T05:53:20.083Z,72.78
2019-01-30T05:55:48.801Z,77.12
2019-01-30T05:58:17.451Z,68.80
2019-01-30T06:00:46.170Z,71.20
2019-01-30T06:03:14.918Z,86.35
2019-01-30T06:05:43.555Z,84.07
2019-01-30T06:08:12.186Z,76.47
2019-01-30T06:10:40.869Z,84.13
2019-01-30T06:13:09.506Z,82.30
2019-01-30T06:15:38.152Z,84.28
2019-01-30T06:18:07.094Z,82.35
2019-01-30T06:20:35.719Z,91.02
2019-01-30T06:23:04.629Z,91.23
2019-01-30T06:25:33.551Z,95.85
2019-01-30T06:28:02.188Z,85.80
2019-01-30T06:30:30.827Z,83.97
2019-01-30T06:32:59.533Z,82.62
2019-01-30T06:35:28.241Z,74.92
2019-01-30T06:37:57.159Z,83.62
2019-01-30T06:40:28.338Z,82.65
2019-01-30T06:42:57.483Z,81.60
2019-01-30T06:45:26.849Z,99.72
2019-01-30T06:47:55.485Z,82.40
2019-01-30T06:50:24.215Z,68.17
2019-01-30T06:52:52.970Z,66.70
2019-01-30T06:55:21.713Z,64.03
2019-01-30T06:57:50.336Z,62.17
2019-01-30T07:00:21.265Z,68.83
2019-01-30T07:02:50.090Z,55.28
2019-01-30T07:05:18.922Z,91.92
2019-01-30T07:07:47.651Z,75.10
2019-01-30T07:10:19.223Z,50.20
2019-01-30T07:12:48.036Z,45.00
2019-01-30T07:15:16.871Z,44.25
2019-01-30T07:17:45.588Z,47.70
2019-01-30T07:20:16.191Z,49.00
2019-01-30T07:22:45.041Z,47.00
2019-01-30T07:25:19.185Z,51.68
2019-01-30T07:27:47.935Z,52.75
2019-01-30T07:30:19.467Z,53.85
2019-01-30T07:32:48.290Z,50.98
2019-01-30T07:35:17.044Z,51.58
2019-01-30T07:37:45.674Z,60.75
2019-01-30T07:40:16.179Z,59.55
2019-01-30T07:42:44.852Z,64.75
2019-01-30T07:45:19.218Z,70.00
2019-01-30T07:47:47.855Z,69.20
2019-01-30T07:50:16.769Z,74.00
2019-01-30T07:52:45.474Z,92.70
2019-01-30T07:55:17.671Z,97.92
2019-01-30T07:57:46.656Z,81.85
2019-01-30T08:00:23.609Z,70.35
2019-01-30T08:02:53.670Z,65.70
2019-01-30T08:05:22.975Z,69.03
2019-01-30T08:07:52.965Z,84.30
2019-01-30T08:10:21.841Z,90.62
2019-01-30T08:12:50.649Z,83.95
2019-01-30T08:15:21.727Z,86.47
2019-01-30T08:17:50.399Z,76.37
2019-01-30T08:20:20.433Z,78.83
2019-01-30T08:22:49.200Z,69.62
2019-01-30T08:25:19.968Z,73.87
2019-01-30T08:27:48.973Z,74.80
2019-01-30T08:30:28.957Z,72.72
2019-01-30T08:33:04.536Z,71.70
2019-01-30T08:35:30.594Z,103.90
2019-01-30T08:37:59.691Z,81.57
2019-01-30T08:40:28.517Z,72.60
2019-01-30T08:42:57.447Z,67.03
2019-01-30T08:45:30.312Z,71.90
2019-01-30T08:47:59.285Z,70.20
2019-01-30T08:50:28.080Z,71.45
2019-01-30T08:52:56.910Z,79.82
2019-01-30T08:55:25.964Z,70.57
2019-01-30T08:57:54.792Z,68.52
2019-01-30T09:00:26.351Z,70.83
2019-01-30T09:02:55.124Z,72.53
2019-01-30T09:05:23.761Z,69.85
2019-01-30T09:07:52.486Z,68.35
2019-01-30T09:10:23.845Z,71.70
2019-01-30T09:12:52.575Z,78.37
2019-01-30T09:15:22.981Z,71.75
2019-01-30T09:17:51.644Z,72.10
2019-01-30T09:20:21.968Z,72.50
2019-01-30T09:22:50.595Z,75.72
2019-01-30T09:25:27.444Z,72.22
2019-01-30T09:27:56.254Z,78.95
2019-01-30T09:30:30.003Z,83.67
2019-01-30T09:32:58.980Z,84.32
2019-01-30T09:35:27.703Z,93.47
2019-01-30T09:37:57.247Z,86.50
2019-01-30T09:40:26.207Z,89.40
2019-01-30T09:42:54.906Z,82.75
2019-01-30T09:45:24.530Z,50.78
2019-01-30T09:47:53.517Z,37.13
2019-01-30T09:50:26.270Z,30.32
2019-01-30T09:52:55.375Z,27.22
2019-01-30T09:55:24.330Z,21.42
2019-01-30T09:57:53.141Z,24.15
2019-01-30T10:00:27.736Z,32.08
2019-01-30T10:02:59.179Z,23.85
2019-01-30T10:05:28.002Z,20.75
2019-01-30T10:07:56.806Z,19.55
2019-01-30T10:10:28.047Z,16.82
2019-01-30T10:12:56.835Z,16.77
2019-01-30T10:15:30.932Z,16.20
2019-01-30T10:17:59.552Z,15.90
2019-01-30T10:20:29.871Z,11.10
2019-01-30T10:22:58.587Z,16.20
2019-01-30T10:25:27.546Z,10.80
2019-01-30T10:27:56.242Z,10.28
2019-01-30T10:30:36.284Z,10.35
2019-01-30T10:33:05.779Z,8.88
2019-01-30T10:35:35.972Z,8.65
2019-01-30T10:38:05.575Z,6.65
2019-01-30T10:40:34.239Z,5.35
2019-01-30T10:43:02.861Z,5.95
2019-01-30T10:45:31.415Z,4.85
2019-01-30T10:48:00.261Z,9.38
2019-01-30T10:50:32.838Z,9.58
2019-01-30T10:53:01.462Z,4.45
2019-01-30T10:55:35.004Z,4.00
2019-01-30T10:58:08.121Z,7.87
2019-01-30T11:00:45.134Z,11.53
2019-01-30T11:03:13.985Z,11.03
2019-01-30T11:05:44.347Z,14.50
2019-01-30T11:08:13.066Z,15.40
2019-01-30T11:10:41.969Z,11.33
2019-01-30T11:13:10.601Z,14.33
2019-01-30T11:15:39.247Z,16.70
2019-01-30T11:18:10.693Z,15.23
2019-01-30T11:20:39.424Z,11.95
2019-01-30T11:23:08.056Z,15.72
2019-01-30T11:25:42.684Z,7.17
2019-01-30T11:28:11.429Z,5.50
2019-01-30T11:30:40.155Z,10.53
2019-01-30T11:33:08.847Z,7.83
2019-01-30T11:35:37.390Z,7.20
2019-01-30T11:38:08.861Z,6.90
2019-01-30T11:40:38.157Z,6.83
2019-01-30T11:43:06.943Z,6.83
2019-01-30T11:45:43.100Z,4.70
2019-01-30T11:48:11.791Z,9.30
2019-01-30T11:50:40.992Z,6.22
2019-01-30T11:53:09.818Z,9.93
2019-01-30T11:55:39.016Z,5.67
2019-01-30T11:58:07.926Z,7.40
2019-01-30T12:00:48.141Z,7.25
2019-01-30T12:03:16.886Z,7.35
2019-01-30T12:05:45.710Z,9.08
2019-01-30T12:08:14.362Z,6.92
2019-01-30T12:10:42.980Z,9.78
2019-01-30T12:13:11.617Z,11.35
2019-01-30T12:15:40.165Z,12.10
2019-01-30T12:18:08.871Z,12.13
2019-01-30T12:20:37.501Z,5.12
2019-01-30T12:23:06.466Z,5.00
2019-01-30T12:25:35.143Z,7.97
2019-01-30T12:28:03.771Z,14.63
2019-01-30T12:30:32.739Z,6.62
2019-01-30T12:33:01.331Z,12.70
2019-01-30T12:35:29.939Z,7.10
2019-01-30T12:37:58.655Z,13.85
2019-01-30T12:40:27.447Z,8.80
2019-01-30T12:42:56.179Z,8.35
2019-01-30T12:45:30.704Z,12.45
2019-01-30T12:47:59.491Z,14.90
2019-01-30T12:50:28.427Z,11.63
2019-01-30T12:52:57.193Z,9.20
2019-01-30T12:55:25.814Z,15.45
2019-01-30T12:57:54.532Z,11.08
2019-01-30T13:00:26.024Z,11.97
2019-01-30T13:02:54.883Z,12.75
2019-01-30T13:05:25.897Z,7.53
2019-01-30T13:07:54.829Z,8.28
2019-01-30T13:10:23.565Z,12.98
2019-01-30T13:12:52.181Z,9.60
2019-01-30T13:15:23.676Z,13.30
2019-01-30T13:17:52.403Z,9.25
2019-01-30T13:20:22.830Z,18.75
2019-01-30T13:22:51.539Z,16.82
2019-01-30T13:25:22.566Z,9.35
2019-01-30T13:27:51.178Z,15.93
2019-01-30T13:30:22.811Z,10.08
2019-01-30T13:32:51.836Z,10.48
2019-01-30T13:35:20.549Z,9.23
2019-01-30T13:37:49.211Z,15.35
2019-01-30T13:40:20.523Z,13.60
2019-01-30T13:42:49.087Z,13.83
2019-01-30T13:45:18.020Z,12.47
2019-01-30T13:47:46.653Z,12.82
2019-01-30T13:50:20.992Z,14.18
2019-01-30T13:52:49.759Z,10.68
2019-01-30T13:55:18.325Z,12.23
2019-01-30T13:57:47.046Z,19.98
2019-01-30T14:00:27.922Z,9.83
2019-01-30T14:02:56.561Z,17.75
2019-01-30T14:05:25.005Z,16.52
2019-01-30T14:07:56.780Z,17.42
2019-01-30T14:10:27.129Z,16.87
2019-01-30T14:12:55.913Z,18.12
2019-01-30T14:15:27.097Z,12.80
2019-01-30T14:17:55.673Z,23.22
2019-01-30T14:20:25.804Z,21.68
2019-01-30T14:22:54.433Z,19.37
2019-01-30T14:25:23.072Z,17.25
2019-01-30T14:27:51.806Z,12.63
2019-01-30T14:30:29.267Z,20.25
2019-01-30T14:32:57.897Z,19.32
2019-01-30T14:35:27.762Z,21.97
2019-01-30T14:37:56.484Z,30.40
2019-01-30T14:40:25.203Z,26.42
2019-01-30T14:42:53.926Z,22.75
2019-01-30T14:45:22.597Z,26.37
2019-01-30T14:47:51.881Z,21.00
2019-01-30T14:50:22.482Z,19.82
2019-01-30T14:52:51.089Z,20.57
2019-01-30T14:55:19.815Z,23.57
2019-01-30T14:57:48.821Z,21.05
2019-01-30T15:00:23.095Z,17.27
2019-01-30T15:02:51.684Z,14.87
2019-01-30T15:05:22.675Z,6.42
2019-01-30T15:07:51.566Z,6.28
2019-01-30T15:10:22.495Z,12.93
2019-01-30T15:12:51.192Z,12.18
2019-01-30T15:15:25.308Z,9.68
2019-01-30T15:17:53.984Z,16.30
2019-01-30T15:20:24.989Z,15.30
2019-01-30T15:22:53.929Z,16.80
2019-01-30T15:25:24.568Z,18.85
2019-01-30T15:27:53.238Z,17.40
2019-01-30T15:30:36.626Z,29.45
2019-01-30T15:33:06.151Z,22.55
2019-01-30T15:35:34.763Z,19.55
2019-01-30T15:38:05.397Z,17.52
2019-01-30T15:40:34.249Z,17.82
2019-01-30T15:43:02.985Z,23.35
2019-01-30T15:45:31.606Z,15.20
2019-01-30T15:48:00.520Z,15.50
2019-01-30T15:50:37.888Z,26.02
2019-01-30T15:53:09.157Z,15.72
2019-01-30T15:55:37.787Z,20.92
2019-01-30T15:58:09.026Z,22.25
2019-01-30T16:00:43.524Z,22.65
2019-01-30T16:03:12.204Z,25.15
2019-01-30T16:05:45.042Z,24.15
2019-01-30T16:08:11.524Z,34.65
2019-01-30T16:10:40.171Z,35.30
2019-01-30T16:13:08.855Z,35.55
2019-01-30T16:15:40.416Z,28.50
2019-01-30T16:18:09.096Z,29.65
2019-01-30T16:20:37.713Z,29.77
2019-01-30T16:23:06.901Z,20.17
2019-01-30T16:25:35.447Z,19.82
2019-01-30T16:28:04.679Z,26.73
2019-01-30T16:30:33.280Z,26.77
2019-01-30T16:33:01.911Z,27.62
2019-01-30T16:35:32.153Z,22.90
2019-01-30T16:38:01.240Z,17.17
2019-01-30T16:40:29.969Z,30.40
2019-01-30T16:42:58.707Z,28.17
2019-01-30T16:45:32.837Z,27.50
2019-01-30T16:48:01.422Z,38.13
2019-01-30T16:50:30.037Z,28.00
2019-01-30T16:52:58.702Z,29.60
2019-01-30T16:55:27.338Z,31.60
2019-01-30T16:57:57.277Z,31.65
2019-01-30T17:00:33.744Z,29.70
2019-01-30T17:03:04.266Z,32.42
2019-01-30T17:05:33.406Z,30.65
2019-01-30T17:08:02.086Z,36.38
2019-01-30T17:10:30.784Z,36.53
2019-01-30T17:12:59.417Z,40.10
2019-01-30T17:15:30.879Z,36.90
2019-01-30T17:17:59.443Z,37.67
2019-01-30T17:20:30.287Z,44.93
2019-01-30T17:22:59.194Z,38.83
2019-01-30T17:25:27.813Z,31.07
2019-01-30T17:27:56.482Z,36.75
2019-01-30T17:30:39.833Z,27.67
2019-01-30T17:33:08.879Z,28.47
2019-01-30T17:35:38.165Z,29.10
2019-01-30T17:38:07.136Z,29.12
2019-01-30T17:40:35.771Z,37.65
2019-01-30T17:43:04.501Z,39.18
2019-01-30T17:45:33.270Z,33.15
2019-01-30T17:48:02.290Z,37.80
2019-01-30T17:50:31.135Z,28.95
2019-01-30T17:53:00.047Z,29.07
2019-01-30T17:55:28.854Z,27.82
2019-01-30T17:57:57.432Z,31.97
2019-01-30T18:00:30.681Z,24.67
2019-01-30T18:02:59.317Z,23.22
2019-01-30T18:05:27.996Z,28.10
2019-01-30T18:07:56.675Z,29.07
2019-01-30T18:10:25.401Z,19.17
2019-01-30T18:12:54.120Z,18.00
2019-01-30T18:15:23.287Z,17.07
2019-01-30T18:17:54.274Z,20.93
2019-01-30T18:20:23.054Z,16.50
2019-01-30T18:22:51.824Z,16.10
2019-01-30T18:25:21.414Z,14.07
2019-01-30T18:27:50.130Z,13.35
2019-01-30T18:30:23.952Z,11.85
2019-01-30T18:32:52.682Z,11.25
2019-01-30T18:35:21.361Z,12.43
2019-01-30T18:37:50.023Z,13.97
2019-01-30T18:40:27.548Z,14.50
2019-01-30T18:42:56.252Z,13.70
2019-01-30T18:45:26.494Z,10.23
2019-01-30T18:47:55.996Z,7.47
2019-01-30T18:50:29.295Z,8.03
2019-01-30T18:52:58.132Z,5.83
2019-01-30T18:55:26.763Z,6.50
2019-01-30T18:57:55.984Z,5.60
2019-01-30T19:00:29.831Z,4.97
2019-01-30T19:03:00.258Z,3.55
2019-01-30T19:05:30.432Z,3.87
2019-01-30T19:07:59.121Z,4.90
2019-01-30T19:10:27.751Z,3.57
2019-01-30T19:12:56.439Z,3.00
2019-01-30T19:15:27.593Z,2.17
2019-01-30T19:17:56.310Z,3.57
2019-01-30T19:20:27.484Z,8.53
2019-01-30T19:22:56.103Z,6.10
2019-01-30T19:25:24.743Z,3.90
2019-01-30T19:27:56.013Z,3.00
2019-01-30T19:30:28.714Z,3.47
2019-01-30T19:32:57.416Z,3.05
2019-01-30T19:35:26.146Z,2.75
2019-01-30T19:37:54.964Z,2.27
2019-01-30T19:40:26.631Z,2.20
2019-01-30T19:42:55.447Z,3.27
2019-01-30T19:45:28.030Z,4.37
2019-01-30T19:47:56.650Z,1.10
2019-01-30T19:50:27.829Z,1.25
2019-01-30T19:52:56.648Z,1.32
2019-01-30T19:55:25.465Z,1.00
2019-01-30T19:57:55.188Z,1.90
2019-01-30T20:00:29.530Z,3.53
2019-01-30T20:02:58.424Z,2.37
2019-01-30T20:05:27.177Z,1.60
2019-01-30T20:07:55.878Z,1.47
2019-01-30T20:10:30.112Z,1.20
2019-01-30T20:12:58.785Z,1.20
2019-01-30T20:15:27.712Z,1.85
2019-01-30T20:17:56.421Z,2.63
2019-01-30T20:20:25.302Z,3.60
2019-01-30T20:22:53.944Z,0.90
2019-01-30T20:25:25.449Z,1.37
2019-01-30T20:27:54.181Z,0.93
2019-01-30T20:30:24.230Z,2.17
2019-01-30T20:32:53.247Z,2.77
2019-01-30T20:35:22.367Z,3.27
2019-01-30T20:37:50.995Z,8.78
2019-01-30T20:40:24.794Z,3.85
2019-01-30T20:42:53.563Z,2.27
2019-01-30T20:45:33.032Z,5.60
2019-01-30T20:47:52.713Z,6.20
2019-01-30T20:50:26.703Z,8.20
2019-01-30T20:52:55.740Z,2.83
2019-01-30T20:55:24.443Z,4.87
2019-01-30T20:57:53.109Z,6.87
2019-01-30T21:00:30.059Z,11.43
2019-01-30T21:02:58.788Z,2.93
2019-01-30T21:05:27.484Z,3.75
2019-01-30T21:07:56.101Z,6.83
2019-01-30T21:10:33.465Z,6.50
2019-01-30T21:13:08.323Z,3.02
2019-01-30T21:15:37.022Z,1.73
2019-01-30T21:18:06.685Z,4.53
2019-01-30T21:20:35.265Z,5.05
2019-01-30T21:23:05.491Z,4.78
2019-01-30T21:25:34.219Z,3.83
2019-01-30T21:28:02.856Z,6.25
2019-01-30T21:30:33.982Z,8.43
2019-01-30T21:33:02.893Z,5.20
2019-01-30T21:35:32.061Z,5.90
2019-01-30T21:38:00.720Z,1.98
2019-01-30T21:40:29.559Z,4.30
2019-01-30T21:42:58.187Z,4.07
2019-01-30T21:45:29.563Z,3.65
2019-01-30T21:47:58.274Z,3.37
2019-01-30T21:50:26.968Z,3.20
2019-01-30T21:52:55.595Z,4.00
2019-01-30T21:55:25.802Z,1.10
2019-01-30T21:57:54.504Z,1.20
2019-01-30T22:00:27.747Z,4.12
2019-01-30T22:02:56.610Z,5.75
2019-01-30T22:05:25.699Z,7.00
2019-01-30T22:08:01.048Z,1.80
2019-01-30T22:10:29.408Z,5.22
2019-01-30T22:12:58.185Z,1.27
2019-01-30T22:15:26.830Z,4.33
2019-01-30T22:17:55.479Z,2.47
2019-01-30T22:20:25.619Z,1.77
2019-01-30T22:22:54.646Z,2.50
2019-01-30T22:25:25.101Z,4.40
2019-01-30T22:27:53.709Z,3.92
2019-01-30T22:30:24.400Z,3.83
2019-01-30T22:32:53.148Z,3.57
2019-01-30T22:35:21.961Z,4.00
2019-01-30T22:37:50.639Z,7.60
2019-01-30T22:40:19.319Z,8.20
2019-01-30T22:42:48.036Z,17.33
2019-01-30T22:45:21.955Z,20.83
2019-01-30T22:47:50.619Z,34.40
2019-01-30T22:50:20.550Z,32.37
2019-01-30T22:52:49.383Z,55.23
2019-01-30T22:55:19.891Z,41.77
2019-01-30T22:57:50.708Z,65.53
2019-01-30T23:00:29.370Z,60.60
2019-01-30T23:02:58.143Z,48.33
2019-01-30T23:05:46.313Z,65.43
2019-01-30T23:08:22.934Z,76.33
2019-01-30T23:11:10.671Z,59.97
2019-01-30T23:13:42.214Z,41.03
2019-01-30T23:16:16.296Z,34.17
2019-01-30T23:18:50.916Z,32.70
2019-01-30T23:21:22.496Z,50.27
2019-01-30T23:23:56.814Z,45.93
2019-01-30T23:26:34.261Z,46.50
2019-01-30T23:29:23.944Z,40.70
2019-01-30T23:31:58.288Z,36.60
2019-01-30T23:34:38.471Z,40.67
2019-01-30T23:37:19.382Z,43.53
2019-01-30T23:40:06.346Z,40.37
2019-01-30T23:43:06.513Z,43.67
2019-01-30T23:45:59.266Z,36.97
2019-01-30T23:48:46.090Z,30.03
2019-01-30T23:51:40.257Z,32.55
2019-01-30T23:54:32.953Z,26.23
2019-01-30T23:57:12.984Z,28.50
2019-01-30T23:59:59.895Z,23.23
